Legaspi, Philippines
Current Conditions -  °F | °C
As of 2:00 PM on Monday 26 Jan 2015 (Local Time) from RPVM Reporting Station
Overcast Overcast  
Wind Chill: 84°   Ceiling: 10000
Heat Index: 91°   Visibility: 6mi
Dew Point: 73°   Wind: 13mph
Humidity: 70%   Direction: 10°N
Pressure: 29.85"   Gusts: NA
Location:  13.13°N, 123.73°E
Report Text: RPVM 260600Z 01011KT 9999 FEW020 OVC100 29/23 Q1011 RMK A2983
Loading
Personal Weather Stations






























Interactive Weather Map New forecast layout! Learn more

10-Day Weather Forecast

Advertisements
Track Severe Weather on mobile